Daydream Believer — V7XJ3 — position and weather

sailwx.info

Track history (hours):
 
Tides and Currents Weather Stations Pressure Air Temp Water Temp Dewpoint Dewpoint Depression Visibility Wind Speed Wind Dir Waves Ship Positions

Daydream Believer

Last reported at 2016-Jun-25 00:16 UTC. Time now 2016-Jun-28 18:48 UTC.
Position N 58°44' W 004°24'.

Length 178 m; draft 10.1 m.

Type: Ship. MMSI: 538004493.

Date/timePositionNaut miles runAvg speedWind from/ knotsBaromVisibWave heightAir tempDewpointWater temp
2016-Jun-25 00:16N 58°44' W 004°24'811.3
2016-Jun-24 23:33N 58°43' W 004°09'1111.1
2016-Jun-24 22:33N 58°44' W 003°47'1110.7
2016-Jun-24 21:33N 58°44' W 003°27'1111.3
2016-Jun-24 20:34N 58°43' W 003°05'1312.7
2016-Jun-24 19:33N 58°43' W 002°41'28412.3
2016-Jun-23 20:33N 57°56' E 006°13'1211.9
2016-Jun-23 19:33N 57°51' E 006°33'1212.0
2016-Jun-23 18:33N 57°48' E 006°55'1312.8
2016-Jun-23 17:33N 57°47' E 007°18'7412.1
2016-Jun-23 11:27N 57°50' E 009°37'1112.0
2016-Jun-23 10:34N 57°50' E 009°57'1212.3
2016-Jun-23 09:34N 57°51' E 010°21'1311.3
2016-Jun-23 08:26N 57°51' E 010°45'8 9.5
2016-Jun-23 07:34N 57°43' E 010°47'7 3.5
2016-Jun-23 05:32N 57°40' E 010°35'0 0.0
2016-Jun-23 04:32N 57°40' E 010°35'0 0.2
2016-Jun-23 03:33N 57°40' E 010°35'7 7.3
2016-Jun-23 02:33N 57°37' E 010°48'1413.7
2016-Jun-23 01:33N 57°33' E 011°13'1313.5
2016-Jun-23 00:33N 57°23' E 011°30'1414.3
2016-Jun-22 23:33N 57°10' E 011°39'1414.1
2016-Jun-22 22:33N 56°56' E 011°47'1312.5
2016-Jun-22 21:33N 56°44' E 011°53'3313.8
2016-Jun-22 19:09N 56°23' E 011°07'712.3
2016-Jun-22 18:34N 56°16' E 011°06'1413.7
2016-Jun-22 17:33N 56°02' E 011°03'3812.5
2016-Jun-22 14:30N 55°24' E 010°60'1111.5
2016-Jun-22 13:34N 55°14' E 011°06'1312.6
2016-Jun-22 12:34N 55°02' E 011°02'1312.5
2016-Jun-22 11:33N 54°51' E 010°50'1212.1
2016-Jun-22 10:34N 54°39' E 010°52'1312.9
2016-Jun-22 09:34N 54°35' E 011°13'1212.2
2016-Jun-22 08:34N 54°31' E 011°33'1313.3
2016-Jun-22 07:34N 54°27' E 011°55'1111.5
2016-Jun-22 06:33N 54°31' E 012°13'9 8.7
2016-Jun-22 05:34N 54°38' E 012°20'7 7.1
2016-Jun-22 04:34N 54°42' E 012°31'1211.8
2016-Jun-22 03:33N 54°48' E 012°48'1111.4
2016-Jun-22 02:33N 54°52' E 013°06'1211.6
2016-Jun-22 01:34N 54°56' E 013°25'1211.9
2016-Jun-22 00:33N 54°60' E 013°45'1211.6
2016-Jun-21 23:34N 55°04' E 014°04'1212.2
2016-Jun-21 22:34N 55°13' E 014°18'1312.7
2016-Jun-21 21:33N 55°23' E 014°32'1212.2
2016-Jun-21 20:34N 55°30' E 014°49'1212.3
2016-Jun-21 19:33N 55°36' E 015°08'1211.8
2016-Jun-21 18:34N 55°40' E 015°28'1311.9
2016-Jun-21 17:26N 55°43' E 015°51'  
2016-Jun-15 08:33N 56°24' E 017°34'1313.2
2016-Jun-15 07:33N 56°16' E 017°15'1313.1
2016-Jun-15 06:33N 56°08' E 016°56'1313.1
2016-Jun-15 05:33N 55°60' E 016°38'1312.8
2016-Jun-15 04:33N 55°54' E 016°18'2812.9
2016-Jun-15 02:24N 55°40' E 015°35'1112.5
2016-Jun-15 01:31N 55°35' E 015°17'1212.4
2016-Jun-15 00:33N 55°31' E 014°58'  
Track history (hours):
 
Tides and Currents Weather Stations Pressure Air Temp Water Temp Dewpoint Dewpoint Depression Visibility Wind Speed Wind Dir Waves Ship Positions

Daydream Believer

Last reported at 2016-Jun-25 00:16 UTC. Time now 2016-Jun-28 18:48 UTC.
Position N 58°44' W 004°24'.

Length 178 m; draft 10.1 m.

Type: Ship. MMSI: 538004493.

Date/timePositionNaut miles runAvg speedWind from/ knotsBaromVisibWave heightAir tempDewpointWater temp
2016-Jun-25 00:16N 58°44' W 004°24'811.3
2016-Jun-24 23:33N 58°43' W 004°09'1111.1
2016-Jun-24 22:33N 58°44' W 003°47'1110.7
2016-Jun-24 21:33N 58°44' W 003°27'1111.3
2016-Jun-24 20:34N 58°43' W 003°05'1312.7
2016-Jun-24 19:33N 58°43' W 002°41'28412.3
2016-Jun-23 20:33N 57°56' E 006°13'1211.9
2016-Jun-23 19:33N 57°51' E 006°33'1212.0
2016-Jun-23 18:33N 57°48' E 006°55'1312.8
2016-Jun-23 17:33N 57°47' E 007°18'7412.1
2016-Jun-23 11:27N 57°50' E 009°37'1112.0
2016-Jun-23 10:34N 57°50' E 009°57'1212.3
2016-Jun-23 09:34N 57°51' E 010°21'1311.3
2016-Jun-23 08:26N 57°51' E 010°45'8 9.5
2016-Jun-23 07:34N 57°43' E 010°47'7 3.5
2016-Jun-23 05:32N 57°40' E 010°35'0 0.0
2016-Jun-23 04:32N 57°40' E 010°35'0 0.2
2016-Jun-23 03:33N 57°40' E 010°35'7 7.3
2016-Jun-23 02:33N 57°37' E 010°48'1413.7
2016-Jun-23 01:33N 57°33' E 011°13'1313.5
2016-Jun-23 00:33N 57°23' E 011°30'1414.3
2016-Jun-22 23:33N 57°10' E 011°39'1414.1
2016-Jun-22 22:33N 56°56' E 011°47'1312.5
2016-Jun-22 21:33N 56°44' E 011°53'3313.8
2016-Jun-22 19:09N 56°23' E 011°07'712.3
2016-Jun-22 18:34N 56°16' E 011°06'1413.7
2016-Jun-22 17:33N 56°02' E 011°03'3812.5
2016-Jun-22 14:30N 55°24' E 010°60'1111.5
2016-Jun-22 13:34N 55°14' E 011°06'1312.6
2016-Jun-22 12:34N 55°02' E 011°02'1312.5
2016-Jun-22 11:33N 54°51' E 010°50'1212.1
2016-Jun-22 10:34N 54°39' E 010°52'1312.9
2016-Jun-22 09:34N 54°35' E 011°13'1212.2
2016-Jun-22 08:34N 54°31' E 011°33'1313.3
2016-Jun-22 07:34N 54°27' E 011°55'1111.5
2016-Jun-22 06:33N 54°31' E 012°13'9 8.7
2016-Jun-22 05:34N 54°38' E 012°20'7 7.1
2016-Jun-22 04:34N 54°42' E 012°31'1211.8
2016-Jun-22 03:33N 54°48' E 012°48'1111.4
2016-Jun-22 02:33N 54°52' E 013°06'1211.6
2016-Jun-22 01:34N 54°56' E 013°25'1211.9
2016-Jun-22 00:33N 54°60' E 013°45'1211.6
2016-Jun-21 23:34N 55°04' E 014°04'1212.2
2016-Jun-21 22:34N 55°13' E 014°18'1312.7
2016-Jun-21 21:33N 55°23' E 014°32'1212.2
2016-Jun-21 20:34N 55°30' E 014°49'1212.3
2016-Jun-21 19:33N 55°36' E 015°08'1211.8
2016-Jun-21 18:34N 55°40' E 015°28'1311.9
2016-Jun-21 17:26N 55°43' E 015°51'  
2016-Jun-15 08:33N 56°24' E 017°34'1313.2
2016-Jun-15 07:33N 56°16' E 017°15'1313.1
2016-Jun-15 06:33N 56°08' E 016°56'1313.1
2016-Jun-15 05:33N 55°60' E 016°38'1312.8
2016-Jun-15 04:33N 55°54' E 016°18'2812.9
2016-Jun-15 02:24N 55°40' E 015°35'1112.5
2016-Jun-15 01:31N 55°35' E 015°17'1212.4
2016-Jun-15 00:33N 55°31' E 014°58'  

Dump ship's entire track history